Terminal Aerodrome Forecast
Issued by NWS

Home | Current Version | Previous Version | Text Only | Print | Product List | Glossary On
Versions: 1 2 3 4 5 6 7 8 9 10 11 12 13
000
FTUS46 KHNX 281130
TAFFAT
TAF
KFAT 281130Z 2812/2912 VRB03KT 5SM HZ SCT200
     FM290300 14004KT 4SM HZ BKN200=

USA.gov is the U.S. government's official web portal to all federal, state and local government web resources and services.